createdAt,value
2019-01-28T00:00:23.461Z,4.90
2019-01-28T00:01:23.454Z,4.60
2019-01-28T00:02:23.442Z,4.60
2019-01-28T00:03:23.461Z,4.40
2019-01-28T00:04:23.421Z,4.30
2019-01-28T00:05:23.431Z,3.70
2019-01-28T00:06:23.394Z,4.40
2019-01-28T00:07:23.384Z,4.90
2019-01-28T00:08:23.373Z,4.50
2019-01-28T00:09:23.390Z,4.60
2019-01-28T00:10:23.350Z,4.50
2019-01-28T00:11:23.351Z,4.60
2019-01-28T00:12:23.335Z,4.70
2019-01-28T00:13:23.318Z,4.50
2019-01-28T00:14:23.334Z,4.80
2019-01-28T00:15:23.295Z,4.80
2019-01-28T00:16:23.284Z,4.80
2019-01-28T00:17:23.288Z,4.70
2019-01-28T00:18:23.260Z,4.50
2019-01-28T00:19:23.275Z,4.70
2019-01-28T00:20:23.241Z,4.70
2019-01-28T00:21:23.227Z,4.80
2019-01-28T00:22:23.218Z,4.30
2019-01-28T00:23:23.210Z,4.80
2019-01-28T00:24:23.231Z,3.80
2019-01-28T00:25:23.187Z,4.30
2019-01-28T00:26:23.173Z,4.30
2019-01-28T00:27:23.166Z,3.80
2019-01-28T00:28:23.153Z,4.50
2019-01-28T00:29:23.167Z,4.30
2019-01-28T00:30:23.136Z,4.30
2019-01-28T00:31:23.119Z,4.20
2019-01-28T00:32:23.109Z,4.50
2019-01-28T00:33:23.099Z,4.40
2019-01-28T00:34:23.116Z,4.50
2019-01-28T00:35:23.079Z,4.70
2019-01-28T00:36:23.082Z,4.50
2019-01-28T00:37:23.053Z,4.30
2019-01-28T00:38:23.043Z,4.40
2019-01-28T00:39:23.057Z,3.90
2019-01-28T00:40:23.022Z,3.90
2019-01-28T00:41:23.010Z,4.20
2019-01-28T00:42:23.020Z,4.30
2019-01-28T00:43:22.991Z,4.00
2019-01-28T00:44:23.001Z,3.80
2019-01-28T00:45:22.967Z,3.70
2019-01-28T00:46:22.955Z,3.60
2019-01-28T00:47:22.945Z,3.80
2019-01-28T00:48:22.959Z,3.80
2019-01-28T00:49:22.949Z,3.70
2019-01-28T00:50:22.911Z,3.60
2019-01-28T00:51:22.902Z,3.70
2019-01-28T00:52:22.892Z,3.60
2019-01-28T00:53:22.879Z,3.80
2019-01-28T00:54:22.899Z,3.70
2019-01-28T00:55:22.859Z,3.80
2019-01-28T00:56:22.852Z,3.60
2019-01-28T00:57:22.835Z,3.30
2019-01-28T00:58:22.825Z,3.60
2019-01-28T00:59:22.839Z,3.10
2019-01-28T01:00:22.813Z,3.90
2019-01-28T01:01:22.792Z,3.70
2019-01-28T01:02:22.781Z,3.70
2019-01-28T01:03:22.770Z,3.50
2019-01-28T01:04:22.785Z,3.60
2019-01-28T01:05:22.748Z,3.40
2019-01-28T01:06:22.746Z,3.20
2019-01-28T01:07:22.726Z,3.00
2019-01-28T01:08:22.714Z,3.10
2019-01-28T01:09:22.727Z,3.10
2019-01-28T01:10:22.692Z,3.10
2019-01-28T01:11:22.682Z,3.60
2019-01-28T01:12:22.684Z,3.20
2019-01-28T01:13:22.659Z,3.70
2019-01-28T01:14:22.678Z,3.30
2019-01-28T01:15:22.637Z,3.70
2019-01-28T01:16:22.627Z,3.40
2019-01-28T01:17:22.615Z,3.10
2019-01-28T01:18:22.616Z,3.20
2019-01-28T01:19:22.618Z,3.10
2019-01-28T01:20:22.583Z,3.10
2019-01-28T01:21:22.574Z,2.80
2019-01-28T01:22:22.562Z,2.90
2019-01-28T01:23:22.552Z,3.30
2019-01-28T01:24:22.570Z,2.50
2019-01-28T01:25:22.531Z,2.30
2019-01-28T01:26:22.518Z,2.50
2019-01-28T01:27:22.507Z,2.80
2019-01-28T01:28:22.495Z,2.60
2019-01-28T01:29:22.510Z,2.10
2019-01-28T01:30:22.479Z,2.70
2019-01-28T01:31:22.466Z,2.60
2019-01-28T01:32:22.451Z,2.70
2019-01-28T01:33:22.441Z,2.70
2019-01-28T01:34:22.454Z,2.50
2019-01-28T01:35:22.419Z,3.10
2019-01-28T01:36:22.410Z,2.50
2019-01-28T01:37:22.401Z,2.90
2019-01-28T01:38:22.419Z,3.00
2019-01-28T01:39:22.400Z,3.10
2019-01-28T01:40:22.367Z,3.00
2019-01-28T01:41:22.366Z,2.30
2019-01-28T01:42:22.354Z,2.80
2019-01-28T01:43:22.355Z,2.80
2019-01-28T01:44:22.350Z,2.90
2019-01-28T01:45:22.322Z,3.00
2019-01-28T01:46:22.299Z,3.00
2019-01-28T01:47:22.290Z,3.00
2019-01-28T01:48:22.296Z,2.80
2019-01-28T01:49:22.269Z,2.60
2019-01-28T01:50:22.283Z,3.20
2019-01-28T01:51:22.248Z,2.80
2019-01-28T01:52:22.233Z,2.90
2019-01-28T01:53:22.231Z,2.80
2019-01-28T01:54:22.212Z,3.20
2019-01-28T01:55:22.228Z,2.90
2019-01-28T01:56:22.190Z,3.50
2019-01-28T01:57:22.182Z,3.10
2019-01-28T01:58:22.169Z,3.20
2019-01-28T01:59:22.166Z,3.40
2019-01-28T02:00:22.174Z,2.50
2019-01-28T02:01:22.138Z,3.20
2019-01-28T02:02:22.126Z,3.30
2019-01-28T02:03:22.120Z,3.20
2019-01-28T02:04:22.104Z,2.60
2019-01-28T02:05:22.141Z,2.50
2019-01-28T02:06:22.082Z,2.70
2019-01-28T02:07:22.075Z,2.80
2019-01-28T02:08:22.060Z,2.70
2019-01-28T02:09:22.049Z,2.80
2019-01-28T02:10:22.062Z,2.90
2019-01-28T02:11:22.041Z,2.40
2019-01-28T02:12:22.017Z,2.60
2019-01-28T02:13:22.005Z,2.30
2019-01-28T02:14:21.996Z,2.50
2019-01-28T02:15:22.009Z,2.20
2019-01-28T02:16:21.976Z,2.40
2019-01-28T02:17:21.981Z,2.20
2019-01-28T02:18:21.955Z,2.50
2019-01-28T02:19:21.942Z,2.70
2019-01-28T02:20:21.954Z,2.40
2019-01-28T02:21:21.919Z,2.30
2019-01-28T02:22:21.909Z,2.30
2019-01-28T02:23:21.905Z,2.20
2019-01-28T02:24:21.886Z,2.40
2019-01-28T02:25:21.920Z,2.20
2019-01-28T02:26:21.866Z,2.30
2019-01-28T02:27:21.853Z,2.20
2019-01-28T02:28:21.850Z,2.60
2019-01-28T02:29:21.850Z,2.40
2019-01-28T02:30:21.844Z,2.10
2019-01-28T02:31:21.815Z,2.20
2019-01-28T02:32:21.805Z,1.70
2019-01-28T02:33:21.794Z,2.50
2019-01-28T02:34:21.780Z,1.70
2019-01-28T02:35:21.804Z,2.10
2019-01-28T02:36:21.755Z,1.90
2019-01-28T02:37:21.742Z,2.20
2019-01-28T02:38:21.732Z,1.90
2019-01-28T02:39:21.721Z,2.60
2019-01-28T02:40:21.734Z,2.20
2019-01-28T02:41:21.706Z,2.10
2019-01-28T02:42:21.712Z,2.30
2019-01-28T02:43:21.678Z,2.70
2019-01-28T02:44:21.665Z,2.00
2019-01-28T02:45:21.677Z,1.90
2019-01-28T02:46:21.644Z,1.90
2019-01-28T02:47:21.636Z,2.10
2019-01-28T02:48:21.636Z,2.10
2019-01-28T02:49:21.622Z,2.10
2019-01-28T02:50:21.625Z,2.30
2019-01-28T02:51:21.587Z,1.90
2019-01-28T02:52:21.577Z,2.20
2019-01-28T02:53:21.565Z,2.00
2019-01-28T02:54:21.559Z,2.20
2019-01-28T02:55:21.584Z,1.90
2019-01-28T02:56:21.534Z,1.70
2019-01-28T02:57:21.522Z,1.70
2019-01-28T02:58:21.513Z,1.90
2019-01-28T02:59:21.505Z,1.80
2019-01-28T03:00:21.514Z,2.10
2019-01-28T03:01:21.484Z,1.90
2019-01-28T03:02:21.476Z,1.80
2019-01-28T03:03:21.458Z,2.00
2019-01-28T03:04:21.448Z,2.00
2019-01-28T03:05:21.460Z,2.20
2019-01-28T03:06:21.425Z,2.20
2019-01-28T03:07:21.415Z,2.40
2019-01-28T03:08:21.405Z,2.10
2019-01-28T03:09:21.403Z,2.40
2019-01-28T03:10:21.410Z,2.30
2019-01-28T03:11:21.371Z,2.40
2019-01-28T03:12:21.360Z,2.20
2019-01-28T03:13:21.351Z,2.30
2019-01-28T03:14:21.342Z,1.90
2019-01-28T03:15:21.367Z,2.00
2019-01-28T03:16:21.321Z,2.20
2019-01-28T03:17:21.309Z,2.40
2019-01-28T03:18:21.301Z,2.70
2019-01-28T03:19:21.293Z,2.40
2019-01-28T03:20:21.299Z,2.10
2019-01-28T03:21:21.278Z,2.10
2019-01-28T03:22:21.256Z,2.20
2019-01-28T03:23:21.244Z,1.90
2019-01-28T03:24:21.235Z,2.30
2019-01-28T03:25:21.248Z,2.20
2019-01-28T03:26:21.212Z,2.20
2019-01-28T03:27:21.208Z,2.20
2019-01-28T03:28:21.190Z,2.50
2019-01-28T03:29:21.180Z,1.90
2019-01-28T03:30:21.193Z,1.90
2019-01-28T03:31:21.160Z,2.20
2019-01-28T03:32:21.149Z,2.40
2019-01-28T03:33:21.150Z,1.80
2019-01-28T03:34:21.133Z,1.50
2019-01-28T03:35:21.154Z,1.80
2019-01-28T03:36:21.106Z,2.20
2019-01-28T03:37:21.099Z,1.90
2019-01-28T03:38:21.087Z,1.70
2019-01-28T03:39:21.080Z,1.90
2019-01-28T03:40:21.066Z,2.00
2019-01-28T03:41:21.082Z,1.80
2019-01-28T03:42:21.047Z,1.70
2019-01-28T03:43:21.032Z,1.90
2019-01-28T03:44:21.078Z,1.70
2019-01-28T03:45:21.016Z,1.80
2019-01-28T03:46:21.043Z,2.10
2019-01-28T03:47:20.990Z,1.80
2019-01-28T03:48:21.001Z,1.80
2019-01-28T03:49:20.987Z,1.90
2019-01-28T03:50:21.010Z,1.80
2019-01-28T03:51:20.988Z,1.60
2019-01-28T03:52:20.979Z,2.00
2019-01-28T03:53:20.931Z,1.80
2019-01-28T03:54:20.915Z,2.00
2019-01-28T03:55:20.948Z,1.80
2019-01-28T03:56:20.923Z,1.70
2019-01-28T03:57:20.888Z,1.70
2019-01-28T03:58:20.872Z,1.70
2019-01-28T03:59:20.891Z,1.90
2019-01-28T04:00:20.853Z,1.90
2019-01-28T04:01:20.881Z,2.00
2019-01-28T04:02:20.831Z,1.70
2019-01-28T04:03:20.823Z,1.50
2019-01-28T04:04:20.808Z,1.70
2019-01-28T04:05:20.799Z,1.70
2019-01-28T04:06:20.825Z,1.50
2019-01-28T04:07:20.784Z,1.80
2019-01-28T04:08:20.767Z,1.60
2019-01-28T04:09:20.755Z,1.40
2019-01-28T04:10:20.747Z,1.20
2019-01-28T04:11:20.802Z,1.50
2019-01-28T04:12:20.744Z,1.30
2019-01-28T04:13:20.717Z,1.70
2019-01-28T04:14:20.705Z,0.90
2019-01-28T04:15:20.692Z,1.30
2019-01-28T04:16:20.703Z,1.20
2019-01-28T04:17:20.674Z,1.30
2019-01-28T04:18:20.686Z,1.30
2019-01-28T04:19:20.651Z,0.90
2019-01-28T04:20:20.640Z,0.90
2019-01-28T04:21:20.658Z,1.00
2019-01-28T04:22:20.619Z,1.00
2019-01-28T04:23:20.611Z,1.00
2019-01-28T04:24:20.609Z,1.00
2019-01-28T04:25:20.587Z,1.10
2019-01-28T04:26:20.599Z,0.80
2019-01-28T04:27:20.565Z,0.90
2019-01-28T04:28:20.558Z,0.90
2019-01-28T04:29:20.545Z,0.70
2019-01-28T04:30:20.547Z,0.60
2019-01-28T04:31:20.547Z,0.90
2019-01-28T04:32:20.520Z,0.90
2019-01-28T04:33:20.503Z,0.90
2019-01-28T04:34:20.505Z,0.60
2019-01-28T04:35:20.480Z,0.70
2019-01-28T04:36:20.504Z,0.80
2019-01-28T04:37:20.460Z,0.70
2019-01-28T04:38:20.450Z,0.70
2019-01-28T04:39:20.441Z,0.70
2019-01-28T04:40:20.430Z,0.70
2019-01-28T04:41:20.441Z,0.60
2019-01-28T04:42:20.421Z,0.40
2019-01-28T04:43:20.397Z,0.50
2019-01-28T04:44:20.385Z,0.60
2019-01-28T04:45:20.378Z,0.70
2019-01-28T04:46:20.391Z,0.50
2019-01-28T04:47:20.355Z,0.60
2019-01-28T04:48:20.358Z,0.60
2019-01-28T04:49:20.332Z,0.60
2019-01-28T04:50:20.332Z,0.70
2019-01-28T04:51:20.339Z,0.60
2019-01-28T04:52:20.302Z,0.60
2019-01-28T04:53:20.289Z,0.80
2019-01-28T04:54:20.290Z,0.70
2019-01-28T04:55:20.275Z,0.90
2019-01-28T04:56:20.280Z,0.90
2019-01-28T04:57:20.247Z,0.80
2019-01-28T04:58:20.241Z,0.80
2019-01-28T04:59:20.229Z,0.60
2019-01-28T05:00:20.228Z,0.70
2019-01-28T05:01:20.244Z,0.60
2019-01-28T05:02:20.195Z,0.60
2019-01-28T05:03:20.182Z,0.70
2019-01-28T05:04:20.176Z,0.90
2019-01-28T05:05:20.166Z,0.70
2019-01-28T05:06:20.172Z,0.70
2019-01-28T05:07:20.146Z,0.80
2019-01-28T05:08:20.144Z,0.80
2019-01-28T05:09:20.119Z,1.20
2019-01-28T05:10:20.106Z,1.00
2019-01-28T05:11:20.123Z,0.80
2019-01-28T05:12:20.086Z,1.10
2019-01-28T05:13:20.085Z,1.20
2019-01-28T05:14:20.072Z,1.20
2019-01-28T05:15:20.071Z,0.90
2019-01-28T05:16:20.044Z,1.30
2019-01-28T05:17:20.054Z,1.30
2019-01-28T05:18:20.023Z,1.30
2019-01-28T05:19:20.021Z,1.30
2019-01-28T05:20:20.015Z,1.20
2019-01-28T05:21:19.990Z,1.10
2019-01-28T05:22:20.016Z,1.20
2019-01-28T05:23:19.968Z,1.50
2019-01-28T05:24:19.964Z,1.30
2019-01-28T05:25:19.971Z,1.10
2019-01-28T05:26:19.935Z,1.10
2019-01-28T05:27:19.945Z,1.00
2019-01-28T05:28:19.919Z,1.10
2019-01-28T05:29:19.910Z,1.20
2019-01-28T05:30:19.897Z,1.10
2019-01-28T05:31:19.891Z,1.30
2019-01-28T05:32:19.892Z,1.30
2019-01-28T05:33:19.861Z,1.10
2019-01-28T05:34:19.850Z,1.20
2019-01-28T05:35:19.841Z,1.30
2019-01-28T05:36:19.831Z,1.20
2019-01-28T05:37:19.859Z,1.20
2019-01-28T05:38:19.844Z,1.30
2019-01-28T05:39:19.801Z,1.60
2019-01-28T05:40:19.788Z,1.60
2019-01-28T05:41:19.777Z,1.10
2019-01-28T05:42:19.788Z,1.10
2019-01-28T05:43:19.765Z,1.40
2019-01-28T05:44:19.746Z,1.20
2019-01-28T05:45:19.734Z,1.60
2019-01-28T05:46:19.727Z,1.30
2019-01-28T05:47:19.736Z,1.20
2019-01-28T05:48:19.702Z,1.40
2019-01-28T05:49:19.700Z,1.40
2019-01-28T05:50:19.682Z,1.40
2019-01-28T05:51:19.670Z,1.40
2019-01-28T05:52:19.688Z,1.20
2019-01-28T05:53:19.649Z,1.50
2019-01-28T05:54:19.639Z,0.90
2019-01-28T05:55:19.694Z,1.60
2019-01-28T05:56:19.617Z,1.30
2019-01-28T05:57:19.630Z,1.60
2019-01-28T05:58:19.598Z,1.50
2019-01-28T05:59:19.585Z,1.50
2019-01-28T06:00:19.575Z,1.60
2019-01-28T06:01:19.570Z,2.20
2019-01-28T06:02:19.576Z,1.80
2019-01-28T06:03:19.552Z,2.30
2019-01-28T06:04:19.544Z,2.20
2019-01-28T06:05:19.522Z,2.60
2019-01-28T06:06:19.518Z,2.30
2019-01-28T06:07:19.536Z,2.30
2019-01-28T06:08:19.492Z,2.40
2019-01-28T06:09:19.482Z,2.50
2019-01-28T06:10:19.471Z,3.00
2019-01-28T06:11:19.460Z,3.00
2019-01-28T06:12:19.473Z,3.10
2019-01-28T06:13:19.454Z,3.00
2019-01-28T06:14:19.430Z,3.80
2019-01-28T06:15:19.419Z,3.80
2019-01-28T06:16:19.409Z,3.80
2019-01-28T06:17:19.424Z,3.90
2019-01-28T06:18:19.388Z,3.40
2019-01-28T06:19:19.382Z,3.00
2019-01-28T06:20:19.371Z,3.40
2019-01-28T06:21:19.358Z,3.70
2019-01-28T06:22:19.373Z,3.90
2019-01-28T06:23:19.336Z,3.80
2019-01-28T06:24:19.329Z,3.80
2019-01-28T06:25:19.361Z,4.00
2019-01-28T06:26:19.301Z,3.70
2019-01-28T06:27:19.315Z,3.40
2019-01-28T06:28:19.280Z,3.80
2019-01-28T06:29:19.270Z,4.30
2019-01-28T06:30:19.260Z,3.40
2019-01-28T06:31:19.253Z,4.50
2019-01-28T06:32:19.260Z,4.20
2019-01-28T06:33:19.229Z,3.40
2019-01-28T06:34:19.220Z,3.40
2019-01-28T06:35:19.212Z,3.20
2019-01-28T06:36:19.202Z,3.30
2019-01-28T06:37:19.219Z,3.80
2019-01-28T06:38:19.176Z,4.10
2019-01-28T06:39:19.166Z,3.60
2019-01-28T06:40:19.153Z,3.90
2019-01-28T06:41:19.143Z,3.50
2019-01-28T06:42:19.157Z,4.20
2019-01-28T06:43:19.131Z,3.70
2019-01-28T06:44:19.115Z,4.00
2019-01-28T06:45:19.104Z,3.50
2019-01-28T06:46:19.195Z,3.30
2019-01-28T06:47:19.105Z,3.30
2019-01-28T06:48:19.099Z,3.50
2019-01-28T06:49:19.070Z,4.30
2019-01-28T06:50:19.048Z,4.20
2019-01-28T06:51:19.050Z,4.70
2019-01-28T06:52:19.049Z,3.70
2019-01-28T06:53:19.014Z,4.50
2019-01-28T06:54:19.011Z,4.60
2019-01-28T06:55:18.998Z,3.80
2019-01-28T06:56:18.987Z,4.50
2019-01-28T06:57:19.029Z,5.10
2019-01-28T06:58:18.977Z,5.10
2019-01-28T06:59:18.992Z,4.50
2019-01-28T07:00:18.956Z,5.50
2019-01-28T07:01:18.957Z,5.00
2019-01-28T07:02:18.930Z,4.70
2019-01-28T07:03:19.633Z,5.30
2019-01-28T07:04:18.934Z,5.10
2019-01-28T07:05:18.888Z,5.40
2019-01-28T07:06:18.895Z,5.60
2019-01-28T07:07:18.890Z,5.40
2019-01-28T07:08:18.883Z,4.40
2019-01-28T07:09:18.851Z,4.10
2019-01-28T07:10:18.833Z,4.20
2019-01-28T07:11:18.829Z,4.90
2019-01-28T07:12:18.817Z,5.10
2019-01-28T07:13:18.862Z,4.50
2019-01-28T07:14:18.864Z,5.30
2019-01-28T07:15:18.788Z,5.20
2019-01-28T07:16:18.779Z,5.60
2019-01-28T07:17:18.759Z,7.00
2019-01-28T07:18:18.799Z,5.60
2019-01-28T07:19:18.739Z,5.70
2019-01-28T07:20:18.740Z,5.80
2019-01-28T07:21:18.721Z,6.80
2019-01-28T07:22:18.706Z,6.30
2019-01-28T07:23:18.719Z,6.30
2019-01-28T07:24:18.701Z,8.10
2019-01-28T07:25:18.707Z,7.10
2019-01-28T07:26:18.727Z,7.40
2019-01-28T07:27:18.672Z,6.80
2019-01-28T07:28:18.781Z,8.40
2019-01-28T07:29:18.636Z,7.00
2019-01-28T07:30:18.624Z,7.60
2019-01-28T07:31:18.611Z,8.20
2019-01-28T07:32:18.626Z,8.50
2019-01-28T07:33:18.669Z,8.00
2019-01-28T07:34:18.638Z,9.00
2019-01-28T07:35:18.614Z,8.10
2019-01-28T07:36:18.575Z,9.00
2019-01-28T07:37:18.605Z,9.90
2019-01-28T07:38:18.682Z,9.50
2019-01-28T07:39:19.586Z,11.10
2019-01-28T07:40:18.558Z,10.20
2019-01-28T07:41:18.543Z,10.70
2019-01-28T07:42:18.562Z,10.30
2019-01-28T07:43:18.587Z,10.90
2019-01-28T07:44:18.541Z,11.50
2019-01-28T07:45:18.530Z,11.40
2019-01-28T07:46:18.525Z,8.60
2019-01-28T07:47:18.462Z,8.20
2019-01-28T07:48:19.127Z,8.80
2019-01-28T07:49:18.471Z,9.30
2019-01-28T07:50:18.471Z,9.90
2019-01-28T07:51:18.416Z,9.80
2019-01-28T07:52:18.809Z,9.50
2019-01-28T07:53:18.488Z,10.20
2019-01-28T07:54:18.394Z,8.00
2019-01-28T07:55:18.387Z,7.20
2019-01-28T07:56:18.409Z,8.70
2019-01-28T07:57:21.095Z,7.90
2019-01-28T07:58:19.118Z,8.00
2019-01-28T07:59:18.385Z,6.30
2019-01-28T08:00:19.553Z,6.10
2019-01-28T08:01:18.362Z,5.60
2019-01-28T08:02:18.328Z,6.80
2019-01-28T08:03:19.148Z,6.70
2019-01-28T08:04:19.157Z,6.80
2019-01-28T08:05:18.364Z,5.90
2019-01-28T08:06:18.321Z,5.20
2019-01-28T08:07:18.314Z,5.00
2019-01-28T08:08:18.318Z,5.30
2019-01-28T08:09:18.251Z,3.10
2019-01-28T08:10:19.146Z,4.70
2019-01-28T08:11:19.267Z,5.00
2019-01-28T08:12:18.226Z,5.20
2019-01-28T08:13:18.337Z,5.30
2019-01-28T08:14:20.148Z,4.80
2019-01-28T08:15:18.226Z,5.80
2019-01-28T08:16:19.163Z,4.30
2019-01-28T08:17:18.188Z,4.10
2019-01-28T08:18:18.690Z,4.80
2019-01-28T08:19:20.152Z,3.60
2019-01-28T08:20:19.109Z,4.20
2019-01-28T08:21:18.156Z,5.20
2019-01-28T08:22:18.113Z,3.90
2019-01-28T08:23:18.212Z,5.00
2019-01-28T08:24:18.112Z,4.70
2019-01-28T08:25:18.095Z,5.40
2019-01-28T08:26:18.090Z,4.10
2019-01-28T08:27:18.065Z,4.00
2019-01-28T08:28:18.074Z,3.90
2019-01-28T08:29:18.022Z,3.00
2019-01-28T08:30:18.034Z,4.30
2019-01-28T08:31:18.002Z,2.70
2019-01-28T08:32:18.028Z,4.70
2019-01-28T08:33:18.097Z,5.20
2019-01-28T08:34:17.969Z,5.50
2019-01-28T08:35:18.004Z,5.00
2019-01-28T08:36:18.036Z,4.90
2019-01-28T08:37:17.952Z,5.50
2019-01-28T08:38:18.025Z,6.30
2019-01-28T08:39:20.641Z,6.20
2019-01-28T08:40:17.948Z,5.60
2019-01-28T08:41:17.923Z,4.30
2019-01-28T08:42:17.901Z,4.70
2019-01-28T08:43:18.169Z,4.00
2019-01-28T08:44:17.988Z,4.10
2019-01-28T08:45:17.856Z,4.70
2019-01-28T08:46:17.893Z,4.30
2019-01-28T08:47:17.796Z,5.10
2019-01-28T08:48:18.335Z,5.00
2019-01-28T08:49:17.830Z,3.50
2019-01-28T08:50:17.763Z,5.30
2019-01-28T08:51:19.402Z,5.50
2019-01-28T08:52:17.761Z,5.70
2019-01-28T08:53:17.742Z,3.90
2019-01-28T08:54:17.849Z,4.10
2019-01-28T08:55:17.738Z,5.90
2019-01-28T08:56:17.744Z,3.10
2019-01-28T08:57:17.756Z,4.30
2019-01-28T08:58:17.826Z,5.10
2019-01-28T08:59:17.743Z,4.70
2019-01-28T09:00:17.724Z,5.10
2019-01-28T09:01:17.746Z,4.90
2019-01-28T09:02:17.642Z,3.10
2019-01-28T09:03:17.687Z,4.60
2019-01-28T09:04:17.635Z,3.70
2019-01-28T09:05:17.612Z,4.90
2019-01-28T09:06:17.728Z,5.10
2019-01-28T09:07:17.668Z,5.00
2019-01-28T09:08:19.039Z,4.50
2019-01-28T09:09:17.709Z,5.40
2019-01-28T09:10:17.572Z,5.00
2019-01-28T09:11:17.601Z,4.20
2019-01-28T09:12:17.565Z,4.00
2019-01-28T09:13:17.519Z,3.30
2019-01-28T09:14:17.646Z,3.00
2019-01-28T09:15:17.543Z,4.50
2019-01-28T09:16:17.533Z,3.60
2019-01-28T09:17:17.535Z,3.80
2019-01-28T09:18:25.988Z,5.00
2019-01-28T09:19:18.491Z,3.80
2019-01-28T09:20:17.537Z,3.90
2019-01-28T09:21:17.455Z,5.60
2019-01-28T09:22:17.476Z,4.40
2019-01-28T09:23:19.129Z,5.10
2019-01-28T09:24:17.514Z,5.00
2019-01-28T09:25:17.449Z,5.20
2019-01-28T09:26:17.412Z,5.20
2019-01-28T09:27:17.407Z,6.00
2019-01-28T09:28:17.397Z,6.90
2019-01-28T09:29:17.422Z,3.90
2019-01-28T09:30:17.360Z,6.70
2019-01-28T09:31:17.342Z,7.30
2019-01-28T09:32:17.420Z,7.80
2019-01-28T09:33:17.332Z,7.50
2019-01-28T09:34:17.363Z,6.30
2019-01-28T09:35:17.293Z,6.00
2019-01-28T09:36:17.296Z,7.40
2019-01-28T09:37:17.382Z,6.50
2019-01-28T09:38:17.265Z,7.80
2019-01-28T09:39:17.326Z,7.50
2019-01-28T09:40:18.128Z,6.40
2019-01-28T09:41:18.159Z,7.70
2019-01-28T09:42:17.277Z,7.10
2019-01-28T09:43:17.276Z,6.70
2019-01-28T09:44:17.343Z,8.00
2019-01-28T09:45:17.219Z,7.70
2019-01-28T09:46:17.206Z,8.10
2019-01-28T09:47:17.181Z,8.80
2019-01-28T09:48:17.274Z,9.10
2019-01-28T09:49:17.253Z,8.00
2019-01-28T09:50:17.177Z,7.50
2019-01-28T09:51:17.141Z,7.00
2019-01-28T09:52:17.104Z,7.20
2019-01-28T09:53:17.128Z,6.40
2019-01-28T09:54:17.178Z,5.20
2019-01-28T09:55:17.107Z,6.00
2019-01-28T09:56:17.163Z,4.30
2019-01-28T09:57:17.110Z,6.20
2019-01-28T09:58:17.081Z,5.90
2019-01-28T09:59:17.086Z,6.10
2019-01-28T10:00:17.038Z,6.80
2019-01-28T10:01:17.004Z,6.60
2019-01-28T10:02:17.029Z,6.70
2019-01-28T10:03:16.958Z,5.90
2019-01-28T10:04:17.129Z,7.20
2019-01-28T10:05:17.012Z,5.70
2019-01-28T10:06:17.080Z,5.50
2019-01-28T10:07:16.945Z,6.50
2019-01-28T10:08:16.983Z,6.80
2019-01-28T10:09:16.957Z,5.90
2019-01-28T10:10:16.890Z,6.80
2019-01-28T10:11:16.871Z,7.30
2019-01-28T10:12:16.866Z,7.70
2019-01-28T10:13:16.858Z,7.40
2019-01-28T10:14:16.914Z,7.90
2019-01-28T10:15:16.862Z,7.50
2019-01-28T10:16:16.817Z,7.50
2019-01-28T10:17:16.809Z,8.30
2019-01-28T10:18:16.798Z,6.10
2019-01-28T10:19:16.964Z,7.00
2019-01-28T10:20:16.785Z,6.60
2019-01-28T10:21:16.772Z,6.90
2019-01-28T10:22:16.771Z,7.00
2019-01-28T10:23:16.738Z,6.80
2019-01-28T10:24:16.763Z,6.90
2019-01-28T10:25:16.718Z,7.50
2019-01-28T10:26:16.707Z,5.90
2019-01-28T10:27:16.717Z,7.80
2019-01-28T10:28:16.691Z,8.00
2019-01-28T10:29:16.675Z,7.30
2019-01-28T10:30:16.685Z,7.20
2019-01-28T10:31:16.652Z,6.90
2019-01-28T10:32:16.644Z,6.60
2019-01-28T10:33:16.636Z,6.40
2019-01-28T10:34:16.627Z,6.10
2019-01-28T10:35:16.629Z,5.80
2019-01-28T10:36:16.619Z,6.70
2019-01-28T10:37:16.591Z,7.30
2019-01-28T10:38:16.573Z,7.00
2019-01-28T10:39:16.569Z,7.60
2019-01-28T10:40:16.591Z,7.70
2019-01-28T10:41:16.542Z,8.40
2019-01-28T10:42:16.529Z,8.30
2019-01-28T10:43:16.518Z,8.10
2019-01-28T10:44:16.508Z,7.90
2019-01-28T10:45:16.519Z,8.50
2019-01-28T10:46:16.494Z,9.70
2019-01-28T10:47:16.479Z,9.40
2019-01-28T10:48:16.463Z,10.30
2019-01-28T10:49:16.453Z,10.70
2019-01-28T10:50:16.466Z,11.20
2019-01-28T10:51:16.435Z,10.40
2019-01-28T10:52:16.421Z,10.20
2019-01-28T10:53:16.415Z,11.20
2019-01-28T10:54:16.398Z,10.70
2019-01-28T10:55:16.408Z,11.20
2019-01-28T10:56:16.375Z,9.10
2019-01-28T10:57:16.364Z,10.70
2019-01-28T10:58:16.360Z,10.40
2019-01-28T10:59:16.344Z,11.00
2019-01-28T11:00:16.357Z,8.20
2019-01-28T11:01:16.322Z,7.10
2019-01-28T11:02:16.554Z,6.70
2019-01-28T11:03:16.303Z,6.90
2019-01-28T11:04:16.288Z,7.40
2019-01-28T11:05:16.351Z,7.00
2019-01-28T11:06:16.266Z,6.50
2019-01-28T11:07:16.271Z,7.60
2019-01-28T11:08:16.263Z,7.40
2019-01-28T11:09:17.069Z,6.10
2019-01-28T11:10:16.343Z,6.70
2019-01-28T11:11:16.238Z,5.80
2019-01-28T11:12:17.165Z,6.00
2019-01-28T11:13:16.350Z,4.60
2019-01-28T11:14:16.303Z,5.10
2019-01-28T11:15:16.341Z,5.60
2019-01-28T11:16:16.275Z,4.40
2019-01-28T11:17:16.284Z,4.20
2019-01-28T11:18:16.224Z,5.30
2019-01-28T11:19:16.164Z,4.90
2019-01-28T11:20:16.278Z,4.80
2019-01-28T11:21:16.128Z,5.00
2019-01-28T11:22:16.239Z,4.20
2019-01-28T11:23:16.122Z,5.20
2019-01-28T11:24:16.251Z,4.00
2019-01-28T11:25:16.201Z,4.70
2019-01-28T11:26:16.066Z,4.40
2019-01-28T11:27:16.209Z,3.60
2019-01-28T11:28:16.039Z,3.70
2019-01-28T11:29:16.062Z,3.20
2019-01-28T11:30:16.172Z,3.30
2019-01-28T11:31:16.042Z,4.60
2019-01-28T11:32:16.090Z,4.90
2019-01-28T11:33:16.044Z,4.70
2019-01-28T11:34:16.007Z,3.50
2019-01-28T11:35:16.239Z,2.20
2019-01-28T11:36:16.013Z,2.80
2019-01-28T11:37:16.020Z,2.50
2019-01-28T11:38:16.104Z,3.60
2019-01-28T11:39:16.026Z,3.10
2019-01-28T11:40:16.040Z,4.00
2019-01-28T11:41:15.902Z,2.80
2019-01-28T11:42:15.945Z,3.50
2019-01-28T11:43:15.947Z,2.50
2019-01-28T11:44:15.895Z,3.50
2019-01-28T11:45:16.106Z,2.90
2019-01-28T11:46:16.035Z,4.20
2019-01-28T11:47:15.965Z,3.50
2019-01-28T11:48:15.862Z,2.50
2019-01-28T11:49:15.862Z,3.90
2019-01-28T11:50:15.949Z,3.70
2019-01-28T11:51:15.870Z,3.70
2019-01-28T11:52:15.849Z,4.30
2019-01-28T11:53:15.764Z,4.60
2019-01-28T11:54:15.791Z,3.20
2019-01-28T11:55:15.873Z,3.80
2019-01-28T11:56:16.580Z,5.50
2019-01-28T11:57:15.744Z,5.20
2019-01-28T11:58:15.712Z,4.90
2019-01-28T11:59:15.722Z,3.60
2019-01-28T12:00:15.802Z,2.60
2019-01-28T12:01:15.682Z,4.00
2019-01-28T12:02:15.666Z,3.20
2019-01-28T12:03:15.665Z,3.80
2019-01-28T12:04:15.641Z,4.70
2019-01-28T12:05:15.631Z,3.40
2019-01-28T12:06:15.650Z,4.30
2019-01-28T12:07:15.618Z,4.60
2019-01-28T12:08:15.600Z,5.30
2019-01-28T12:09:15.589Z,5.20
2019-01-28T12:10:15.595Z,5.40
2019-01-28T12:11:15.592Z,4.20
2019-01-28T12:12:15.561Z,5.60
2019-01-28T12:13:15.545Z,5.60
2019-01-28T12:14:15.529Z,4.70
2019-01-28T12:15:15.527Z,3.90
2019-01-28T12:16:15.533Z,5.30
2019-01-28T12:17:15.519Z,3.80
2019-01-28T12:18:15.497Z,4.80
2019-01-28T12:19:15.490Z,4.00
2019-01-28T12:20:15.477Z,4.90
2019-01-28T12:21:15.489Z,4.80
2019-01-28T12:22:15.471Z,4.40
2019-01-28T12:23:15.446Z,4.70
2019-01-28T12:24:15.425Z,5.30
2019-01-28T12:25:15.429Z,5.00
2019-01-28T12:26:15.439Z,4.30
2019-01-28T12:27:15.392Z,5.70
2019-01-28T12:28:15.379Z,5.20
2019-01-28T12:29:15.387Z,4.50
2019-01-28T12:30:15.361Z,5.80
2019-01-28T12:31:15.371Z,3.90
2019-01-28T12:32:15.342Z,5.00
2019-01-28T12:33:15.331Z,4.40
2019-01-28T12:34:15.591Z,4.10
2019-01-28T12:35:15.303Z,5.10
2019-01-28T12:36:15.327Z,4.50
2019-01-28T12:37:15.282Z,4.90
2019-01-28T12:38:15.270Z,3.50
2019-01-28T12:39:15.259Z,4.40
2019-01-28T12:40:15.252Z,4.70
2019-01-28T12:41:17.454Z,4.60
2019-01-28T12:42:15.238Z,4.00
2019-01-28T12:43:15.217Z,5.20
2019-01-28T12:44:15.209Z,4.00
2019-01-28T12:45:15.226Z,5.00
2019-01-28T12:46:15.218Z,4.30
2019-01-28T12:47:15.176Z,8.40
2019-01-28T12:48:15.162Z,6.30
2019-01-28T12:49:21.937Z,6.50
2019-01-28T12:50:16.160Z,6.60
2019-01-28T12:51:15.151Z,5.70
2019-01-28T12:52:15.136Z,3.00
2019-01-28T12:53:15.110Z,4.50
2019-01-28T12:54:15.110Z,4.90
2019-01-28T12:55:15.096Z,3.70
2019-01-28T12:56:15.114Z,4.40
2019-01-28T12:57:15.076Z,6.10
2019-01-28T12:58:15.057Z,5.30
2019-01-28T12:59:15.043Z,5.90
2019-01-28T13:00:15.045Z,4.70
2019-01-28T13:01:15.046Z,5.70
2019-01-28T13:02:15.015Z,5.40
2019-01-28T13:03:15.015Z,6.40
2019-01-28T13:04:15.008Z,6.60
2019-01-28T13:05:14.981Z,7.20
2019-01-28T13:06:14.999Z,5.80
2019-01-28T13:07:14.958Z,6.80
2019-01-28T13:08:14.969Z,5.00
2019-01-28T13:09:14.940Z,5.20
2019-01-28T13:10:14.933Z,6.10
2019-01-28T13:11:14.957Z,5.80
2019-01-28T13:12:14.904Z,6.90
2019-01-28T13:13:14.897Z,5.20
2019-01-28T13:14:14.891Z,5.20
2019-01-28T13:15:14.878Z,5.40
2019-01-28T13:16:14.890Z,5.70
2019-01-28T13:17:14.889Z,5.60